sensor_id;sensor_type;location;lat;lon;timestamp;temperature;humidity
22698;DHT22;11516;51.612;7.510;2023-07-29T00:01:19;19.30;99.90
22698;DHT22;11516;51.612;7.510;2023-07-29T00:03:45;19.20;99.90
22698;DHT22;11516;51.612;7.510;2023-07-29T00:06:11;19.10;99.90
22698;DHT22;11516;51.612;7.510;2023-07-29T00:08:36;19.20;99.90
22698;DHT22;11516;51.612;7.510;2023-07-29T00:11:02;19.10;99.90
22698;DHT22;11516;51.612;7.510;2023-07-29T00:13:29;19.10;99.90
22698;DHT22;11516;51.612;7.510;2023-07-29T00:15:55;19.10;99.90
22698;DHT22;11516;51.612;7.510;2023-07-29T00:18:21;19.10;99.90
22698;DHT22;11516;51.612;7.510;2023-07-29T00:20:47;19.10;99.90
22698;DHT22;11516;51.612;7.510;2023-07-29T00:23:13;19.10;99.90
22698;DHT22;11516;51.612;7.510;2023-07-29T00:25:38;19.20;99.90
22698;DHT22;11516;51.612;7.510;2023-07-29T00:28:04;19.20;99.90
22698;DHT22;11516;51.612;7.510;2023-07-29T00:30:29;19.20;99.90
22698;DHT22;11516;51.612;7.510;2023-07-29T00:32:55;19.30;99.90
22698;DHT22;11516;51.612;7.510;2023-07-29T00:35:20;19.30;99.90
22698;DHT22;11516;51.612;7.510;2023-07-29T00:37:46;19.30;99.90
22698;DHT22;11516;51.612;7.510;2023-07-29T00:40:20;19.30;99.90
22698;DHT22;11516;51.612;7.510;2023-07-29T00:42:46;19.30;99.90
22698;DHT22;11516;51.612;7.510;2023-07-29T00:45:12;19.30;99.90
22698;DHT22;11516;51.612;7.510;2023-07-29T00:47:39;19.30;99.90
22698;DHT22;11516;51.612;7.510;2023-07-29T00:50:05;19.20;99.90
22698;DHT22;11516;51.612;7.510;2023-07-29T00:52:32;19.20;99.90
22698;DHT22;11516;51.612;7.510;2023-07-29T00:54:58;19.10;99.90
22698;DHT22;11516;51.612;7.510;2023-07-29T00:57:24;19.20;99.90
22698;DHT22;11516;51.612;7.510;2023-07-29T00:59:51;19.20;99.90
22698;DHT22;11516;51.612;7.510;2023-07-29T01:02:17;19.20;99.90
22698;DHT22;11516;51.612;7.510;2023-07-29T01:04:42;19.20;99.90
22698;DHT22;11516;51.612;7.510;2023-07-29T01:07:17;19.20;99.90
22698;DHT22;11516;51.612;7.510;2023-07-29T01:09:55;19.10;99.90
22698;DHT22;11516;51.612;7.510;2023-07-29T01:12:31;19.10;99.90
22698;DHT22;11516;51.612;7.510;2023-07-29T01:17:33;19.10;99.90
22698;DHT22;11516;51.612;7.510;2023-07-29T01:20:11;19.20;99.90
22698;DHT22;11516;51.612;7.510;2023-07-29T01:22:39;19.20;99.90
22698;DHT22;11516;51.612;7.510;2023-07-29T01:25:06;19.10;99.90
22698;DHT22;11516;51.612;7.510;2023-07-29T01:27:31;19.10;99.90
22698;DHT22;11516;51.612;7.510;2023-07-29T01:29:58;19.10;99.90
22698;DHT22;11516;51.612;7.510;2023-07-29T01:32:37;19.20;99.90
22698;DHT22;11516;51.612;7.510;2023-07-29T01:37:51;19.20;99.90
22698;DHT22;11516;51.612;7.510;2023-07-29T01:40:18;19.10;99.90
22698;DHT22;11516;51.612;7.510;2023-07-29T01:42:44;19.10;99.90
22698;DHT22;11516;51.612;7.510;2023-07-29T01:45:11;19.00;99.90
22698;DHT22;11516;51.612;7.510;2023-07-29T01:47:36;19.00;99.90
22698;DHT22;11516;51.612;7.510;2023-07-29T01:50:06;18.90;99.90
22698;DHT22;11516;51.612;7.510;2023-07-29T01:52:31;18.90;99.90
22698;DHT22;11516;51.612;7.510;2023-07-29T01:54:57;18.90;99.90
22698;DHT22;11516;51.612;7.510;2023-07-29T01:57:22;18.90;99.90
22698;DHT22;11516;51.612;7.510;2023-07-29T01:59:48;18.90;99.90
22698;DHT22;11516;51.612;7.510;2023-07-29T02:02:14;18.90;99.90
22698;DHT22;11516;51.612;7.510;2023-07-29T02:04:39;18.80;99.90
22698;DHT22;11516;51.612;7.510;2023-07-29T02:07:05;18.80;99.90
22698;DHT22;11516;51.612;7.510;2023-07-29T02:09:30;18.80;99.90
22698;DHT22;11516;51.612;7.510;2023-07-29T02:11:57;18.70;99.90
22698;DHT22;11516;51.612;7.510;2023-07-29T02:14:23;18.70;99.90
22698;DHT22;11516;51.612;7.510;2023-07-29T02:16:48;18.70;99.90
22698;DHT22;11516;51.612;7.510;2023-07-29T02:19:14;18.70;99.90
22698;DHT22;11516;51.612;7.510;2023-07-29T02:21:40;18.70;99.90
22698;DHT22;11516;51.612;7.510;2023-07-29T02:24:06;18.70;99.90
22698;DHT22;11516;51.612;7.510;2023-07-29T02:26:31;18.70;99.90
22698;DHT22;11516;51.612;7.510;2023-07-29T02:28:57;18.70;99.90
22698;DHT22;11516;51.612;7.510;2023-07-29T02:31:24;18.70;99.90
22698;DHT22;11516;51.612;7.510;2023-07-29T02:33:50;18.70;99.90
22698;DHT22;11516;51.612;7.510;2023-07-29T02:36:16;18.70;99.90
22698;DHT22;11516;51.612;7.510;2023-07-29T02:38:42;18.70;99.90
22698;DHT22;11516;51.612;7.510;2023-07-29T02:41:08;18.70;99.90
22698;DHT22;11516;51.612;7.510;2023-07-29T02:43:35;18.70;99.90
22698;DHT22;11516;51.612;7.510;2023-07-29T02:46:02;18.70;99.90
22698;DHT22;11516;51.612;7.510;2023-07-29T02:48:28;18.70;99.90
22698;DHT22;11516;51.612;7.510;2023-07-29T02:50:54;18.70;99.90
22698;DHT22;11516;51.612;7.510;2023-07-29T02:53:20;18.70;99.90
22698;DHT22;11516;51.612;7.510;2023-07-29T02:55:45;18.70;99.90
22698;DHT22;11516;51.612;7.510;2023-07-29T02:58:11;18.80;99.90
22698;DHT22;11516;51.612;7.510;2023-07-29T03:00:36;18.70;99.90
22698;DHT22;11516;51.612;7.510;2023-07-29T03:03:02;18.70;99.90
22698;DHT22;11516;51.612;7.510;2023-07-29T03:05:28;18.70;99.90
22698;DHT22;11516;51.612;7.510;2023-07-29T03:07:53;18.70;99.90
22698;DHT22;11516;51.612;7.510;2023-07-29T03:10:19;18.80;99.90
22698;DHT22;11516;51.612;7.510;2023-07-29T03:12:46;18.70;99.90
22698;DHT22;11516;51.612;7.510;2023-07-29T03:15:12;18.70;99.90
22698;DHT22;11516;51.612;7.510;2023-07-29T03:17:37;18.70;99.90
22698;DHT22;11516;51.612;7.510;2023-07-29T03:20:03;18.80;99.90
22698;DHT22;11516;51.612;7.510;2023-07-29T03:22:29;18.80;99.90
22698;DHT22;11516;51.612;7.510;2023-07-29T03:24:54;18.80;99.90
22698;DHT22;11516;51.612;7.510;2023-07-29T03:27:20;18.80;99.90
22698;DHT22;11516;51.612;7.510;2023-07-29T03:29:45;18.90;99.90
22698;DHT22;11516;51.612;7.510;2023-07-29T03:32:11;18.90;99.90
22698;DHT22;11516;51.612;7.510;2023-07-29T03:34:37;18.90;99.90
22698;DHT22;11516;51.612;7.510;2023-07-29T03:37:04;18.70;99.90
22698;DHT22;11516;51.612;7.510;2023-07-29T03:39:29;18.80;99.90
22698;DHT22;11516;51.612;7.510;2023-07-29T03:41:55;18.70;99.90
22698;DHT22;11516;51.612;7.510;2023-07-29T03:44:20;18.70;99.90
22698;DHT22;11516;51.612;7.510;2023-07-29T03:46:46;18.70;99.90
22698;DHT22;11516;51.612;7.510;2023-07-29T03:49:11;18.60;99.90
22698;DHT22;11516;51.612;7.510;2023-07-29T03:51:37;18.70;99.90
22698;DHT22;11516;51.612;7.510;2023-07-29T03:54:02;18.60;99.90
22698;DHT22;11516;51.612;7.510;2023-07-29T03:56:28;18.70;99.90
22698;DHT22;11516;51.612;7.510;2023-07-29T03:59:02;18.70;99.90
22698;DHT22;11516;51.612;7.510;2023-07-29T04:01:28;18.60;99.90
22698;DHT22;11516;51.612;7.510;2023-07-29T04:03:54;18.70;99.90
22698;DHT22;11516;51.612;7.510;2023-07-29T04:06:20;18.70;99.90
22698;DHT22;11516;51.612;7.510;2023-07-29T04:08:45;18.70;99.90
22698;DHT22;11516;51.612;7.510;2023-07-29T04:11:11;18.60;99.90
22698;DHT22;11516;51.612;7.510;2023-07-29T04:13:37;18.70;99.90
22698;DHT22;11516;51.612;7.510;2023-07-29T04:16:06;18.70;99.90
22698;DHT22;11516;51.612;7.510;2023-07-29T04:18:31;18.70;99.90
22698;DHT22;11516;51.612;7.510;2023-07-29T04:20:57;18.70;99.90
22698;DHT22;11516;51.612;7.510;2023-07-29T04:23:22;18.70;99.90
22698;DHT22;11516;51.612;7.510;2023-07-29T04:25:48;18.70;99.90
22698;DHT22;11516;51.612;7.510;2023-07-29T04:28:15;18.70;99.90
22698;DHT22;11516;51.612;7.510;2023-07-29T04:30:41;18.80;99.90
22698;DHT22;11516;51.612;7.510;2023-07-29T04:33:06;18.80;99.90
22698;DHT22;11516;51.612;7.510;2023-07-29T04:35:32;18.80;99.90
22698;DHT22;11516;51.612;7.510;2023-07-29T04:37:57;18.80;99.90
22698;DHT22;11516;51.612;7.510;2023-07-29T04:40:23;18.80;99.90
22698;DHT22;11516;51.612;7.510;2023-07-29T04:42:49;18.70;99.90
22698;DHT22;11516;51.612;7.510;2023-07-29T04:45:15;18.70;99.90
22698;DHT22;11516;51.612;7.510;2023-07-29T04:47:41;18.80;99.90
22698;DHT22;11516;51.612;7.510;2023-07-29T04:50:07;18.70;99.90
22698;DHT22;11516;51.612;7.510;2023-07-29T04:52:33;18.80;99.90
22698;DHT22;11516;51.612;7.510;2023-07-29T04:54:58;18.70;99.90
22698;DHT22;11516;51.612;7.510;2023-07-29T04:57:24;18.80;99.90
22698;DHT22;11516;51.612;7.510;2023-07-29T04:59:49;18.90;99.90
22698;DHT22;11516;51.612;7.510;2023-07-29T05:02:15;18.80;99.90
22698;DHT22;11516;51.612;7.510;2023-07-29T05:04:41;18.80;99.90
22698;DHT22;11516;51.612;7.510;2023-07-29T05:07:06;18.80;99.90
22698;DHT22;11516;51.612;7.510;2023-07-29T05:09:32;18.80;99.90
22698;DHT22;11516;51.612;7.510;2023-07-29T05:11:57;18.80;99.90
22698;DHT22;11516;51.612;7.510;2023-07-29T05:14:23;18.80;99.90
22698;DHT22;11516;51.612;7.510;2023-07-29T05:16:49;18.80;99.90
22698;DHT22;11516;51.612;7.510;2023-07-29T05:19:14;18.80;99.90
22698;DHT22;11516;51.612;7.510;2023-07-29T05:21:40;18.80;99.90
22698;DHT22;11516;51.612;7.510;2023-07-29T05:24:06;18.80;99.90
22698;DHT22;11516;51.612;7.510;2023-07-29T05:26:31;18.80;99.90
22698;DHT22;11516;51.612;7.510;2023-07-29T05:28:57;18.80;99.90
22698;DHT22;11516;51.612;7.510;2023-07-29T05:31:22;18.60;99.90
22698;DHT22;11516;51.612;7.510;2023-07-29T05:33:48;18.70;99.90
22698;DHT22;11516;51.612;7.510;2023-07-29T05:36:14;18.80;99.90
22698;DHT22;11516;51.612;7.510;2023-07-29T05:38:39;18.70;99.90
22698;DHT22;11516;51.612;7.510;2023-07-29T05:41:05;18.80;99.90
22698;DHT22;11516;51.612;7.510;2023-07-29T05:43:31;18.70;99.90
22698;DHT22;11516;51.612;7.510;2023-07-29T05:45:56;18.70;99.90
22698;DHT22;11516;51.612;7.510;2023-07-29T05:48:22;18.70;99.90
22698;DHT22;11516;51.612;7.510;2023-07-29T05:50:47;18.90;99.90
22698;DHT22;11516;51.612;7.510;2023-07-29T05:53:14;18.90;99.90
22698;DHT22;11516;51.612;7.510;2023-07-29T05:55:40;18.90;99.90
22698;DHT22;11516;51.612;7.510;2023-07-29T05:58:05;18.90;99.90
22698;DHT22;11516;51.612;7.510;2023-07-29T06:00:31;18.90;99.90
22698;DHT22;11516;51.612;7.510;2023-07-29T06:02:56;19.00;99.90
22698;DHT22;11516;51.612;7.510;2023-07-29T06:05:22;18.80;99.90
22698;DHT22;11516;51.612;7.510;2023-07-29T06:07:48;18.70;99.90
22698;DHT22;11516;51.612;7.510;2023-07-29T06:10:15;18.70;99.90
22698;DHT22;11516;51.612;7.510;2023-07-29T06:12:44;18.80;99.90
22698;DHT22;11516;51.612;7.510;2023-07-29T06:15:10;18.70;99.90
22698;DHT22;11516;51.612;7.510;2023-07-29T06:17:35;18.70;99.90
22698;DHT22;11516;51.612;7.510;2023-07-29T06:20:01;18.70;99.90
22698;DHT22;11516;51.612;7.510;2023-07-29T06:22:27;18.70;99.90
22698;DHT22;11516;51.612;7.510;2023-07-29T06:24:53;18.60;99.90
22698;DHT22;11516;51.612;7.510;2023-07-29T06:27:19;18.60;99.90
22698;DHT22;11516;51.612;7.510;2023-07-29T06:29:44;18.70;99.90
22698;DHT22;11516;51.612;7.510;2023-07-29T06:32:10;18.70;99.90
22698;DHT22;11516;51.612;7.510;2023-07-29T06:34:35;18.60;99.90
22698;DHT22;11516;51.612;7.510;2023-07-29T06:37:01;18.60;99.90
22698;DHT22;11516;51.612;7.510;2023-07-29T06:39:26;18.60;99.90
22698;DHT22;11516;51.612;7.510;2023-07-29T06:41:52;18.60;99.90
22698;DHT22;11516;51.612;7.510;2023-07-29T06:44:17;18.50;99.90
22698;DHT22;11516;51.612;7.510;2023-07-29T06:46:43;18.60;99.90
22698;DHT22;11516;51.612;7.510;2023-07-29T06:49:08;18.20;99.90
22698;DHT22;11516;51.612;7.510;2023-07-29T06:51:34;18.00;99.90
22698;DHT22;11516;51.612;7.510;2023-07-29T06:54:01;17.90;99.90
22698;DHT22;11516;51.612;7.510;2023-07-29T06:56:28;17.80;99.90
22698;DHT22;11516;51.612;7.510;2023-07-29T06:58:53;17.60;99.90
22698;DHT22;11516;51.612;7.510;2023-07-29T07:01:19;17.50;99.90
22698;DHT22;11516;51.612;7.510;2023-07-29T07:03:44;17.30;99.90
22698;DHT22;11516;51.612;7.510;2023-07-29T07:06:10;17.40;99.90
22698;DHT22;11516;51.612;7.510;2023-07-29T07:08:36;17.40;99.90
22698;DHT22;11516;51.612;7.510;2023-07-29T07:11:01;17.40;99.90
22698;DHT22;11516;51.612;7.510;2023-07-29T07:13:27;17.40;99.90
22698;DHT22;11516;51.612;7.510;2023-07-29T07:15:56;17.40;99.90
22698;DHT22;11516;51.612;7.510;2023-07-29T07:18:22;17.40;99.90
22698;DHT22;11516;51.612;7.510;2023-07-29T07:20:49;17.30;99.90
22698;DHT22;11516;51.612;7.510;2023-07-29T07:23:15;17.40;99.90
22698;DHT22;11516;51.612;7.510;2023-07-29T07:25:41;17.40;99.90
22698;DHT22;11516;51.612;7.510;2023-07-29T07:28:11;17.50;99.90
22698;DHT22;11516;51.612;7.510;2023-07-29T07:30:40;17.40;99.90
22698;DHT22;11516;51.612;7.510;2023-07-29T07:33:09;17.50;99.90
22698;DHT22;11516;51.612;7.510;2023-07-29T07:35:34;17.60;99.90
22698;DHT22;11516;51.612;7.510;2023-07-29T07:38:00;17.60;99.90
22698;DHT22;11516;51.612;7.510;2023-07-29T07:40:36;17.70;99.90
22698;DHT22;11516;51.612;7.510;2023-07-29T07:43:02;17.70;99.90
22698;DHT22;11516;51.612;7.510;2023-07-29T07:45:27;17.60;99.90
22698;DHT22;11516;51.612;7.510;2023-07-29T07:47:53;17.70;99.90
22698;DHT22;11516;51.612;7.510;2023-07-29T07:50:19;17.90;99.90
22698;DHT22;11516;51.612;7.510;2023-07-29T07:52:45;18.00;99.90
22698;DHT22;11516;51.612;7.510;2023-07-29T07:55:10;18.10;99.90
22698;DHT22;11516;51.612;7.510;2023-07-29T07:57:36;18.00;99.90
22698;DHT22;11516;51.612;7.510;2023-07-29T08:00:02;18.00;99.90
22698;DHT22;11516;51.612;7.510;2023-07-29T08:02:29;17.90;99.90
22698;DHT22;11516;51.612;7.510;2023-07-29T08:04:55;17.80;99.90
22698;DHT22;11516;51.612;7.510;2023-07-29T08:07:20;17.80;99.90
22698;DHT22;11516;51.612;7.510;2023-07-29T08:09:46;17.80;99.90
22698;DHT22;11516;51.612;7.510;2023-07-29T08:12:11;17.90;99.90
22698;DHT22;11516;51.612;7.510;2023-07-29T08:14:37;17.90;99.90
22698;DHT22;11516;51.612;7.510;2023-07-29T08:17:03;18.20;99.90
22698;DHT22;11516;51.612;7.510;2023-07-29T08:19:28;18.10;99.90
22698;DHT22;11516;51.612;7.510;2023-07-29T08:21:54;18.30;99.90
22698;DHT22;11516;51.612;7.510;2023-07-29T08:24:19;18.10;99.90
22698;DHT22;11516;51.612;7.510;2023-07-29T08:26:45;18.30;99.90
22698;DHT22;11516;51.612;7.510;2023-07-29T08:29:11;18.10;99.90
22698;DHT22;11516;51.612;7.510;2023-07-29T08:31:37;18.10;99.90
22698;DHT22;11516;51.612;7.510;2023-07-29T08:34:03;18.10;99.90
22698;DHT22;11516;51.612;7.510;2023-07-29T08:36:28;18.30;99.90
22698;DHT22;11516;51.612;7.510;2023-07-29T08:38:54;18.40;99.90
22698;DHT22;11516;51.612;7.510;2023-07-29T08:41:29;18.50;99.90
22698;DHT22;11516;51.612;7.510;2023-07-29T08:44:09;18.50;99.90
22698;DHT22;11516;51.612;7.510;2023-07-29T08:46:36;18.90;99.90
22698;DHT22;11516;51.612;7.510;2023-07-29T08:49:02;19.00;99.90
22698;DHT22;11516;51.612;7.510;2023-07-29T08:51:28;19.50;99.90
22698;DHT22;11516;51.612;7.510;2023-07-29T08:53:54;19.70;99.90
22698;DHT22;11516;51.612;7.510;2023-07-29T08:56:21;19.90;99.90
22698;DHT22;11516;51.612;7.510;2023-07-29T08:58:49;20.10;99.90
22698;DHT22;11516;51.612;7.510;2023-07-29T09:01:15;20.30;99.90
22698;DHT22;11516;51.612;7.510;2023-07-29T09:03:41;20.40;99.90
22698;DHT22;11516;51.612;7.510;2023-07-29T09:06:07;20.50;99.90
22698;DHT22;11516;51.612;7.510;2023-07-29T09:08:34;20.70;99.90
22698;DHT22;11516;51.612;7.510;2023-07-29T09:11:00;20.90;99.90
22698;DHT22;11516;51.612;7.510;2023-07-29T09:13:26;20.80;99.90
22698;DHT22;11516;51.612;7.510;2023-07-29T09:15:55;20.80;99.90
22698;DHT22;11516;51.612;7.510;2023-07-29T09:18:22;21.00;99.90
22698;DHT22;11516;51.612;7.510;2023-07-29T09:20:49;21.10;99.90
22698;DHT22;11516;51.612;7.510;2023-07-29T09:23:15;21.20;99.90
22698;DHT22;11516;51.612;7.510;2023-07-29T09:25:41;21.30;99.90
22698;DHT22;11516;51.612;7.510;2023-07-29T09:28:10;21.50;99.90
22698;DHT22;11516;51.612;7.510;2023-07-29T09:30:38;21.60;99.90
22698;DHT22;11516;51.612;7.510;2023-07-29T09:33:03;21.60;99.90
22698;DHT22;11516;51.612;7.510;2023-07-29T09:35:30;21.80;99.90
22698;DHT22;11516;51.612;7.510;2023-07-29T09:37:57;21.90;99.90
22698;DHT22;11516;51.612;7.510;2023-07-29T09:40:23;21.80;99.90
22698;DHT22;11516;51.612;7.510;2023-07-29T09:42:50;22.00;99.90
22698;DHT22;11516;51.612;7.510;2023-07-29T09:45:26;22.20;99.90
22698;DHT22;11516;51.612;7.510;2023-07-29T09:47:54;22.20;99.90
22698;DHT22;11516;51.612;7.510;2023-07-29T09:50:23;22.30;99.90
22698;DHT22;11516;51.612;7.510;2023-07-29T09:52:51;22.40;99.90
22698;DHT22;11516;51.612;7.510;2023-07-29T09:55:23;22.60;99.90
22698;DHT22;11516;51.612;7.510;2023-07-29T09:58:00;22.40;99.90
22698;DHT22;11516;51.612;7.510;2023-07-29T10:00:31;22.40;99.90
22698;DHT22;11516;51.612;7.510;2023-07-29T10:02:58;22.40;99.90
22698;DHT22;11516;51.612;7.510;2023-07-29T10:05:26;22.40;99.90
22698;DHT22;11516;51.612;7.510;2023-07-29T10:07:53;22.60;99.90
22698;DHT22;11516;51.612;7.510;2023-07-29T10:10:20;22.70;99.90
22698;DHT22;11516;51.612;7.510;2023-07-29T10:12:46;22.80;99.90
22698;DHT22;11516;51.612;7.510;2023-07-29T10:15:12;23.00;99.90
22698;DHT22;11516;51.612;7.510;2023-07-29T10:17:38;22.80;99.90
22698;DHT22;11516;51.612;7.510;2023-07-29T10:20:06;22.70;99.90
22698;DHT22;11516;51.612;7.510;2023-07-29T10:22:40;22.70;99.90
22698;DHT22;11516;51.612;7.510;2023-07-29T10:25:20;22.70;99.90
22698;DHT22;11516;51.612;7.510;2023-07-29T10:27:47;22.50;99.90
22698;DHT22;11516;51.612;7.510;2023-07-29T10:30:13;22.70;99.90
22698;DHT22;11516;51.612;7.510;2023-07-29T10:32:43;22.90;99.90
22698;DHT22;11516;51.612;7.510;2023-07-29T10:35:10;23.10;99.90
22698;DHT22;11516;51.612;7.510;2023-07-29T10:37:36;23.30;99.90
22698;DHT22;11516;51.612;7.510;2023-07-29T10:40:06;23.30;99.90
22698;DHT22;11516;51.612;7.510;2023-07-29T10:42:32;23.20;99.90
22698;DHT22;11516;51.612;7.510;2023-07-29T10:44:58;23.10;99.90
22698;DHT22;11516;51.612;7.510;2023-07-29T10:47:25;23.30;99.90
22698;DHT22;11516;51.612;7.510;2023-07-29T10:49:53;23.20;99.90
22698;DHT22;11516;51.612;7.510;2023-07-29T10:55:00;23.30;99.90
22698;DHT22;11516;51.612;7.510;2023-07-29T10:57:39;23.20;99.90
22698;DHT22;11516;51.612;7.510;2023-07-29T11:00:06;23.10;99.90
22698;DHT22;11516;51.612;7.510;2023-07-29T11:02:35;23.40;99.90
22698;DHT22;11516;51.612;7.510;2023-07-29T11:05:18;23.80;99.90
22698;DHT22;11516;51.612;7.510;2023-07-29T11:07:48;23.80;99.90
22698;DHT22;11516;51.612;7.510;2023-07-29T11:10:14;23.90;99.90
22698;DHT22;11516;51.612;7.510;2023-07-29T11:12:50;24.10;99.90
22698;DHT22;11516;51.612;7.510;2023-07-29T11:15:22;24.40;99.90
22698;DHT22;11516;51.612;7.510;2023-07-29T11:18:21;24.30;99.90
22698;DHT22;11516;51.612;7.510;2023-07-29T11:20:40;24.40;99.90
22698;DHT22;11516;51.612;7.510;2023-07-29T11:23:15;24.50;99.90
22698;DHT22;11516;51.612;7.510;2023-07-29T11:25:41;24.30;99.90
22698;DHT22;11516;51.612;7.510;2023-07-29T11:28:06;24.10;99.90
22698;DHT22;11516;51.612;7.510;2023-07-29T11:30:32;23.50;99.90
22698;DHT22;11516;51.612;7.510;2023-07-29T11:32:59;24.00;99.90
22698;DHT22;11516;51.612;7.510;2023-07-29T11:35:24;24.80;99.90
22698;DHT22;11516;51.612;7.510;2023-07-29T11:37:51;24.90;99.90
22698;DHT22;11516;51.612;7.510;2023-07-29T11:40:18;25.30;99.90
22698;DHT22;11516;51.612;7.510;2023-07-29T11:42:49;25.80;99.90
22698;DHT22;11516;51.612;7.510;2023-07-29T11:45:18;26.00;99.90
22698;DHT22;11516;51.612;7.510;2023-07-29T11:47:45;26.60;99.90
22698;DHT22;11516;51.612;7.510;2023-07-29T11:50:12;27.10;99.90
22698;DHT22;11516;51.612;7.510;2023-07-29T11:52:42;27.30;99.90
22698;DHT22;11516;51.612;7.510;2023-07-29T11:55:08;26.70;99.90
22698;DHT22;11516;51.612;7.510;2023-07-29T11:57:36;26.00;99.90
22698;DHT22;11516;51.612;7.510;2023-07-29T12:00:03;25.60;99.90
22698;DHT22;11516;51.612;7.510;2023-07-29T12:02:30;25.40;99.90
22698;DHT22;11516;51.612;7.510;2023-07-29T12:04:57;25.60;99.90
22698;DHT22;11516;51.612;7.510;2023-07-29T12:07:23;25.50;99.90
22698;DHT22;11516;51.612;7.510;2023-07-29T12:09:49;25.20;99.90
22698;DHT22;11516;51.612;7.510;2023-07-29T12:12:15;25.00;99.90
22698;DHT22;11516;51.612;7.510;2023-07-29T12:14:44;24.60;99.90
22698;DHT22;11516;51.612;7.510;2023-07-29T12:17:11;24.50;99.90
22698;DHT22;11516;51.612;7.510;2023-07-29T12:19:37;24.50;99.90
22698;DHT22;11516;51.612;7.510;2023-07-29T12:22:05;24.50;99.90
22698;DHT22;11516;51.612;7.510;2023-07-29T12:24:32;24.20;99.90
22698;DHT22;11516;51.612;7.510;2023-07-29T12:26:58;24.30;99.90
22698;DHT22;11516;51.612;7.510;2023-07-29T12:29:24;24.70;99.90
22698;DHT22;11516;51.612;7.510;2023-07-29T12:32:00;25.40;99.90
22698;DHT22;11516;51.612;7.510;2023-07-29T12:34:27;25.50;99.90
22698;DHT22;11516;51.612;7.510;2023-07-29T12:36:54;25.00;99.90
22698;DHT22;11516;51.612;7.510;2023-07-29T12:39:43;25.10;99.90
22698;DHT22;11516;51.612;7.510;2023-07-29T12:42:08;25.80;99.90
22698;DHT22;11516;51.612;7.510;2023-07-29T12:44:35;26.00;99.90
22698;DHT22;11516;51.612;7.510;2023-07-29T12:47:02;26.20;99.90
22698;DHT22;11516;51.612;7.510;2023-07-29T12:49:29;25.90;99.90
22698;DHT22;11516;51.612;7.510;2023-07-29T12:51:58;25.60;99.90
22698;DHT22;11516;51.612;7.510;2023-07-29T12:54:24;25.40;99.90
22698;DHT22;11516;51.612;7.510;2023-07-29T12:56:49;25.00;99.90
22698;DHT22;11516;51.612;7.510;2023-07-29T12:59:15;25.00;99.90
22698;DHT22;11516;51.612;7.510;2023-07-29T13:01:41;25.20;99.90
22698;DHT22;11516;51.612;7.510;2023-07-29T13:04:07;25.40;99.90
22698;DHT22;11516;51.612;7.510;2023-07-29T13:06:32;25.50;99.90
22698;DHT22;11516;51.612;7.510;2023-07-29T13:08:58;26.10;99.90
22698;DHT22;11516;51.612;7.510;2023-07-29T13:11:24;26.10;99.90
22698;DHT22;11516;51.612;7.510;2023-07-29T13:13:49;25.90;99.90
22698;DHT22;11516;51.612;7.510;2023-07-29T13:16:15;25.20;99.90
22698;DHT22;11516;51.612;7.510;2023-07-29T13:18:41;24.70;99.90
22698;DHT22;11516;51.612;7.510;2023-07-29T13:21:08;25.20;99.90
22698;DHT22;11516;51.612;7.510;2023-07-29T13:23:33;25.70;99.90
22698;DHT22;11516;51.612;7.510;2023-07-29T13:25:59;26.30;99.90
22698;DHT22;11516;51.612;7.510;2023-07-29T13:28:25;26.50;99.90
22698;DHT22;11516;51.612;7.510;2023-07-29T13:30:50;26.70;99.90
22698;DHT22;11516;51.612;7.510;2023-07-29T13:33:16;26.70;99.90
22698;DHT22;11516;51.612;7.510;2023-07-29T13:35:42;26.90;99.90
22698;DHT22;11516;51.612;7.510;2023-07-29T13:38:07;26.20;99.90
22698;DHT22;11516;51.612;7.510;2023-07-29T13:40:33;25.80;99.90
22698;DHT22;11516;51.612;7.510;2023-07-29T13:42:59;25.40;99.90
22698;DHT22;11516;51.612;7.510;2023-07-29T13:45:25;25.20;99.90
22698;DHT22;11516;51.612;7.510;2023-07-29T13:47:50;25.90;99.90
22698;DHT22;11516;51.612;7.510;2023-07-29T13:50:16;26.50;99.90
22698;DHT22;11516;51.612;7.510;2023-07-29T13:52:43;26.80;99.90
22698;DHT22;11516;51.612;7.510;2023-07-29T13:55:09;26.50;99.90
22698;DHT22;11516;51.612;7.510;2023-07-29T13:57:35;26.00;99.90
22698;DHT22;11516;51.612;7.510;2023-07-29T14:00:01;25.50;99.90
22698;DHT22;11516;51.612;7.510;2023-07-29T14:02:26;24.70;99.90
22698;DHT22;11516;51.612;7.510;2023-07-29T14:04:52;24.20;99.90
22698;DHT22;11516;51.612;7.510;2023-07-29T14:07:18;24.20;99.90
22698;DHT22;11516;51.612;7.510;2023-07-29T14:09:43;24.10;99.90
22698;DHT22;11516;51.612;7.510;2023-07-29T14:12:09;24.00;99.90
22698;DHT22;11516;51.612;7.510;2023-07-29T14:14:40;23.80;99.90
22698;DHT22;11516;51.612;7.510;2023-07-29T14:17:05;23.70;99.90
22698;DHT22;11516;51.612;7.510;2023-07-29T14:19:31;23.50;99.90
22698;DHT22;11516;51.612;7.510;2023-07-29T14:21:57;23.40;99.90
22698;DHT22;11516;51.612;7.510;2023-07-29T14:24:23;23.30;99.90
22698;DHT22;11516;51.612;7.510;2023-07-29T14:26:49;23.20;99.90
22698;DHT22;11516;51.612;7.510;2023-07-29T14:29:14;23.20;99.90
22698;DHT22;11516;51.612;7.510;2023-07-29T14:31:40;23.00;99.90
22698;DHT22;11516;51.612;7.510;2023-07-29T14:34:05;22.70;99.90
22698;DHT22;11516;51.612;7.510;2023-07-29T14:36:31;22.20;99.90
22698;DHT22;11516;51.612;7.510;2023-07-29T14:38:58;21.70;99.90
22698;DHT22;11516;51.612;7.510;2023-07-29T14:41:23;20.40;99.90
22698;DHT22;11516;51.612;7.510;2023-07-29T14:43:49;19.50;99.90
22698;DHT22;11516;51.612;7.510;2023-07-29T14:46:15;19.00;99.90
22698;DHT22;11516;51.612;7.510;2023-07-29T14:48:40;18.40;99.90
22698;DHT22;11516;51.612;7.510;2023-07-29T14:51:06;17.90;99.90
22698;DHT22;11516;51.612;7.510;2023-07-29T14:53:31;17.40;99.90
22698;DHT22;11516;51.612;7.510;2023-07-29T14:55:57;17.20;99.90
22698;DHT22;11516;51.612;7.510;2023-07-29T14:58:22;17.20;99.90
22698;DHT22;11516;51.612;7.510;2023-07-29T15:00:51;17.10;99.90
22698;DHT22;11516;51.612;7.510;2023-07-29T15:03:16;16.80;99.90
22698;DHT22;11516;51.612;7.510;2023-07-29T15:05:42;16.90;99.90
22698;DHT22;11516;51.612;7.510;2023-07-29T15:08:07;16.90;99.90
22698;DHT22;11516;51.612;7.510;2023-07-29T15:10:33;17.10;99.90
22698;DHT22;11516;51.612;7.510;2023-07-29T15:12:58;17.30;99.90
22698;DHT22;11516;51.612;7.510;2023-07-29T15:15:24;17.50;99.90
22698;DHT22;11516;51.612;7.510;2023-07-29T15:17:49;17.60;99.90
22698;DHT22;11516;51.612;7.510;2023-07-29T15:20:15;17.90;99.90
22698;DHT22;11516;51.612;7.510;2023-07-29T15:22:41;18.10;99.90
22698;DHT22;11516;51.612;7.510;2023-07-29T15:25:09;18.50;99.90
22698;DHT22;11516;51.612;7.510;2023-07-29T15:27:34;18.60;99.90
22698;DHT22;11516;51.612;7.510;2023-07-29T15:30:00;19.00;99.90
22698;DHT22;11516;51.612;7.510;2023-07-29T15:32:26;19.90;99.90
22698;DHT22;11516;51.612;7.510;2023-07-29T15:34:53;20.70;99.90